LKKB

Kbely Air Base Airport

Prague, Czech Republic
METAR LKKB 221600Z 07009KT CAVOK M00/M10 Q1020 NOSIG
Observed Flight Rules
Feb-22 @ 16:00 UTC (41 minutes ago) Visual Flight Rules
Wind Visibility Clouds
70° at 9 knots 10,000+ meters
  • Clear skies
Temperatures Readings
Current 0°C / 32°F
Dewpoint -10°C / 14°F
Humidity 47%
Altimeter 30.12" Hg
Pressure 1020 hPa
Elevation 286
METAR LKKB 221600Z 07009KT CAVOK M00/M10 Q1020 NOSIG
Observed Flight Rules
Feb-22 @ 16:00 UTC
(41 minutes ago)
VFR
Wind Visibility
70° at 9 knots 10,000+ meters
Clouds
  • Clear skies
Temperature Dewpoint
0°C / 32°F -10°C / 14°F
Humidity Altimeter Pressure
47% 30.12" Hg 1020 hPa